sensor_id;sensor_type;location;lat;lon;timestamp;pressure;altitude;pressure_sealevel;temperature;humidity
4326;BME280;58429;49.826;10.880;2023-02-13T00:00:00;100734;;;3.35;84.08
4326;BME280;58429;49.826;10.880;2023-02-13T00:01:00;100734;;;3.35;84.06
4326;BME280;58429;49.826;10.880;2023-02-13T00:02:00;100726;;;3.34;84.05
4326;BME280;58429;49.826;10.880;2023-02-13T00:03:00;100723;;;3.35;84.12
4326;BME280;58429;49.826;10.880;2023-02-13T00:04:00;100726;;;3.32;84.3
4326;BME280;58429;49.826;10.880;2023-02-13T00:05:00;100726;;;3.3;84.53
4326;BME280;58429;49.826;10.880;2023-02-13T00:06:01;100726;;;3.25;84.59
4326;BME280;58429;49.826;10.880;2023-02-13T00:07:00;100732;;;3.23;84.59
4326;BME280;58429;49.826;10.880;2023-02-13T00:08:00;100725;;;3.17;84.6
4326;BME280;58429;49.826;10.880;2023-02-13T00:09:00;100721;;;3.17;84.57
4326;BME280;58429;49.826;10.880;2023-02-13T00:10:00;100729;;;3.16;84.53
4326;BME280;58429;49.826;10.880;2023-02-13T00:11:00;100730;;;3.17;84.51
4326;BME280;58429;49.826;10.880;2023-02-13T00:12:00;100729;;;3.15;84.42
4326;BME280;58429;49.826;10.880;2023-02-13T00:13:00;100722;;;3.12;84.3
4326;BME280;58429;49.826;10.880;2023-02-13T00:14:00;100721;;;3.09;84.23
4326;BME280;58429;49.826;10.880;2023-02-13T00:15:00;100719;;;3.08;84.16
4326;BME280;58429;49.826;10.880;2023-02-13T00:16:01;100719;;;3.09;84.12
4326;BME280;58429;49.826;10.880;2023-02-13T00:17:01;100717;;;3.08;84.07
4326;BME280;58429;49.826;10.880;2023-02-13T00:18:01;100719;;;3.04;83.99
4326;BME280;58429;49.826;10.880;2023-02-13T00:19:00;100718;;;3.04;84.03
4326;BME280;58429;49.826;10.880;2023-02-13T00:20:01;100718;;;2.98;84.03
4326;BME280;58429;49.826;10.880;2023-02-13T00:21:01;100726;;;3.05;84.06
4326;BME280;58429;49.826;10.880;2023-02-13T00:22:00;100721;;;3.02;84.09
4326;BME280;58429;49.826;10.880;2023-02-13T00:23:01;100718;;;3.01;84.13
4326;BME280;58429;49.826;10.880;2023-02-13T00:24:00;100723;;;3.05;84.17
4326;BME280;58429;49.826;10.880;2023-02-13T00:25:00;100718;;;3.03;84.15
4326;BME280;58429;49.826;10.880;2023-02-13T00:26:03;100718;;;3.03;84.11
4326;BME280;58429;49.826;10.880;2023-02-13T00:27:00;100714;;;2.97;84.03
4326;BME280;58429;49.826;10.880;2023-02-13T00:28:00;100713;;;3.02;84
4326;BME280;58429;49.826;10.880;2023-02-13T00:29:00;100720;;;2.89;83.7
4326;BME280;58429;49.826;10.880;2023-02-13T00:30:01;100718;;;2.9;83.54
4326;BME280;58429;49.826;10.880;2023-02-13T00:31:01;100720;;;2.86;83.38
4326;BME280;58429;49.826;10.880;2023-02-13T00:32:00;100714;;;2.83;83.22
4326;BME280;58429;49.826;10.880;2023-02-13T00:33:00;100714;;;2.83;83.07
4326;BME280;58429;49.826;10.880;2023-02-13T00:34:00;100718;;;2.82;82.98
4326;BME280;58429;49.826;10.880;2023-02-13T00:35:00;100718;;;2.83;83
4326;BME280;58429;49.826;10.880;2023-02-13T00:36:01;100715;;;2.81;83
4326;BME280;58429;49.826;10.880;2023-02-13T00:37:00;100716;;;2.81;82.93
4326;BME280;58429;49.826;10.880;2023-02-13T00:38:00;100712;;;2.8;82.97
4326;BME280;58429;49.826;10.880;2023-02-13T00:39:00;100712;;;2.78;82.92
4326;BME280;58429;49.826;10.880;2023-02-13T00:40:00;100710;;;2.72;82.79
4326;BME280;58429;49.826;10.880;2023-02-13T00:41:01;100707;;;2.69;82.62
4326;BME280;58429;49.826;10.880;2023-02-13T00:42:00;100710;;;2.7;82.55
4326;BME280;58429;49.826;10.880;2023-02-13T00:43:00;100716;;;2.69;82.43
4326;BME280;58429;49.826;10.880;2023-02-13T00:44:01;100712;;;2.63;82.49
4326;BME280;58429;49.826;10.880;2023-02-13T00:45:00;100707;;;2.63;82.54
4326;BME280;58429;49.826;10.880;2023-02-13T00:46:00;100710;;;2.62;82.51
4326;BME280;58429;49.826;10.880;2023-02-13T00:47:00;100713;;;2.62;82.56
4326;BME280;58429;49.826;10.880;2023-02-13T00:48:00;100713;;;2.58;82.56
4326;BME280;58429;49.826;10.880;2023-02-13T00:49:00;100711;;;2.54;82.62
4326;BME280;58429;49.826;10.880;2023-02-13T00:50:00;100713;;;2.51;82.75
4326;BME280;58429;49.826;10.880;2023-02-13T00:51:01;100708;;;2.56;82.86
4326;BME280;58429;49.826;10.880;2023-02-13T00:52:00;100710;;;2.56;82.96
4326;BME280;58429;49.826;10.880;2023-02-13T00:53:00;100708;;;2.57;83.07
4326;BME280;58429;49.826;10.880;2023-02-13T00:54:01;100714;;;2.56;83.17
4326;BME280;58429;49.826;10.880;2023-02-13T00:55:00;100712;;;2.57;83.29
4326;BME280;58429;49.826;10.880;2023-02-13T00:56:00;100714;;;2.51;83.4
4326;BME280;58429;49.826;10.880;2023-02-13T00:57:01;100719;;;2.48;83.51
4326;BME280;58429;49.826;10.880;2023-02-13T00:58:01;100717;;;2.41;83.59
4326;BME280;58429;49.826;10.880;2023-02-13T00:59:00;100724;;;2.45;83.66
4326;BME280;58429;49.826;10.880;2023-02-13T01:00:01;100719;;;2.44;83.68
4326;BME280;58429;49.826;10.880;2023-02-13T01:01:00;100721;;;2.44;83.76
4326;BME280;58429;49.826;10.880;2023-02-13T01:02:01;100723;;;2.46;83.83
4326;BME280;58429;49.826;10.880;2023-02-13T01:03:00;100728;;;2.42;83.91
4326;BME280;58429;49.826;10.880;2023-02-13T01:04:00;100721;;;2.42;84.01
4326;BME280;58429;49.826;10.880;2023-02-13T01:05:01;100715;;;2.36;84
4326;BME280;58429;49.826;10.880;2023-02-13T01:06:00;100719;;;2.34;84.05
4326;BME280;58429;49.826;10.880;2023-02-13T01:07:00;100722;;;2.34;84.14
4326;BME280;58429;49.826;10.880;2023-02-13T01:08:00;100724;;;2.32;84.2
4326;BME280;58429;49.826;10.880;2023-02-13T01:09:01;100722;;;2.33;84.19
4326;BME280;58429;49.826;10.880;2023-02-13T01:10:00;100720;;;2.3;84.17
4326;BME280;58429;49.826;10.880;2023-02-13T01:11:00;100728;;;2.3;84.1
4326;BME280;58429;49.826;10.880;2023-02-13T01:12:00;100723;;;2.27;84.02
4326;BME280;58429;49.826;10.880;2023-02-13T01:13:01;100723;;;2.23;83.92
4326;BME280;58429;49.826;10.880;2023-02-13T01:14:00;100721;;;2.22;83.81
4326;BME280;58429;49.826;10.880;2023-02-13T01:15:01;100724;;;2.19;83.81
4326;BME280;58429;49.826;10.880;2023-02-13T01:16:00;100724;;;2.2;83.82
4326;BME280;58429;49.826;10.880;2023-02-13T01:17:00;100717;;;2.19;83.77
4326;BME280;58429;49.826;10.880;2023-02-13T01:18:01;100726;;;2.15;83.7
4326;BME280;58429;49.826;10.880;2023-02-13T01:19:00;100725;;;2.12;83.65
4326;BME280;58429;49.826;10.880;2023-02-13T01:20:00;100725;;;2.12;83.56
4326;BME280;58429;49.826;10.880;2023-02-13T01:21:02;100728;;;2.12;83.51
4326;BME280;58429;49.826;10.880;2023-02-13T01:22:00;100721;;;2.1;83.38
4326;BME280;58429;49.826;10.880;2023-02-13T01:23:00;100722;;;2.09;83.28
4326;BME280;58429;49.826;10.880;2023-02-13T01:24:02;100725;;;2.03;83.18
4326;BME280;58429;49.826;10.880;2023-02-13T01:25:00;100720;;;2.07;83.13
4326;BME280;58429;49.826;10.880;2023-02-13T01:26:02;100724;;;2.03;83.04
4326;BME280;58429;49.826;10.880;2023-02-13T01:27:00;100724;;;2.02;83.03
4326;BME280;58429;49.826;10.880;2023-02-13T01:28:00;100724;;;2;83.07
4326;BME280;58429;49.826;10.880;2023-02-13T01:29:01;100724;;;2.02;83.05
4326;BME280;58429;49.826;10.880;2023-02-13T01:30:00;100720;;;1.98;83.07
4326;BME280;58429;49.826;10.880;2023-02-13T01:31:00;100722;;;1.94;82.98
4326;BME280;58429;49.826;10.880;2023-02-13T01:32:00;100721;;;1.88;82.82
4326;BME280;58429;49.826;10.880;2023-02-13T01:33:00;100717;;;1.93;82.87
4326;BME280;58429;49.826;10.880;2023-02-13T01:34:00;100717;;;1.91;82.9
4326;BME280;58429;49.826;10.880;2023-02-13T01:35:00;100716;;;1.88;82.99
4326;BME280;58429;49.826;10.880;2023-02-13T01:36:04;100714;;;1.91;83.06
4326;BME280;58429;49.826;10.880;2023-02-13T01:37:00;100719;;;1.92;83.16
4326;BME280;58429;49.826;10.880;2023-02-13T01:38:00;100719;;;1.88;83.24
4326;BME280;58429;49.826;10.880;2023-02-13T01:39:00;100719;;;1.87;83.38
4326;BME280;58429;49.826;10.880;2023-02-13T01:40:00;100714;;;1.87;83.43
4326;BME280;58429;49.826;10.880;2023-02-13T01:41:00;100717;;;1.87;83.65
4326;BME280;58429;49.826;10.880;2023-02-13T01:42:00;100717;;;1.89;83.72
4326;BME280;58429;49.826;10.880;2023-02-13T01:43:00;100715;;;1.86;83.75
4326;BME280;58429;49.826;10.880;2023-02-13T01:44:00;100717;;;1.86;83.88
4326;BME280;58429;49.826;10.880;2023-02-13T01:45:01;100722;;;1.83;84.19
4326;BME280;58429;49.826;10.880;2023-02-13T01:46:00;100715;;;1.84;84.27
4326;BME280;58429;49.826;10.880;2023-02-13T01:47:00;100716;;;1.84;84.26
4326;BME280;58429;49.826;10.880;2023-02-13T01:48:01;100718;;;1.83;84.17
4326;BME280;58429;49.826;10.880;2023-02-13T01:49:02;100722;;;1.82;84.24
4326;BME280;58429;49.826;10.880;2023-02-13T01:50:02;100720;;;1.82;84.39
4326;BME280;58429;49.826;10.880;2023-02-13T01:51:01;100716;;;1.81;84.44
4326;BME280;58429;49.826;10.880;2023-02-13T01:52:00;100717;;;1.77;84.57
4326;BME280;58429;49.826;10.880;2023-02-13T01:53:03;100720;;;1.77;84.56
4326;BME280;58429;49.826;10.880;2023-02-13T01:54:02;100711;;;1.74;84.68
4326;BME280;58429;49.826;10.880;2023-02-13T01:55:00;100715;;;1.74;84.68
4326;BME280;58429;49.826;10.880;2023-02-13T01:56:02;100713;;;1.73;84.66
4326;BME280;58429;49.826;10.880;2023-02-13T01:57:02;100714;;;1.72;84.75
4326;BME280;58429;49.826;10.880;2023-02-13T01:58:01;100720;;;1.69;84.74
4326;BME280;58429;49.826;10.880;2023-02-13T01:59:01;100718;;;1.67;84.72
4326;BME280;58429;49.826;10.880;2023-02-13T02:00:01;100710;;;1.64;84.53
4326;BME280;58429;49.826;10.880;2023-02-13T02:01:01;100715;;;1.62;84.42
4326;BME280;58429;49.826;10.880;2023-02-13T02:02:00;100713;;;1.64;84.31
4326;BME280;58429;49.826;10.880;2023-02-13T02:03:01;100710;;;1.63;84.22
4326;BME280;58429;49.826;10.880;2023-02-13T02:04:03;100712;;;1.65;84.17
4326;BME280;58429;49.826;10.880;2023-02-13T02:05:01;100715;;;1.58;84.1
4326;BME280;58429;49.826;10.880;2023-02-13T02:06:01;100713;;;1.59;84.01
4326;BME280;58429;49.826;10.880;2023-02-13T02:07:02;100713;;;1.58;84.1
4326;BME280;58429;49.826;10.880;2023-02-13T02:08:01;100715;;;1.55;84.21
4326;BME280;58429;49.826;10.880;2023-02-13T02:09:02;100713;;;1.56;84.32
4326;BME280;58429;49.826;10.880;2023-02-13T02:10:02;100711;;;1.54;84.26
4326;BME280;58429;49.826;10.880;2023-02-13T02:11:03;100714;;;1.5;84.3
4326;BME280;58429;49.826;10.880;2023-02-13T02:12:02;100714;;;1.48;84.4
4326;BME280;58429;49.826;10.880;2023-02-13T02:13:08;100708;;;1.48;84.47
4326;BME280;58429;49.826;10.880;2023-02-13T02:14:00;100706;;;1.42;84.47
4326;BME280;58429;49.826;10.880;2023-02-13T02:15:01;100709;;;1.43;84.51
4326;BME280;58429;49.826;10.880;2023-02-13T02:16:00;100718;;;1.42;84.42
4326;BME280;58429;49.826;10.880;2023-02-13T02:17:00;100715;;;1.44;84.4
4326;BME280;58429;49.826;10.880;2023-02-13T02:18:00;100714;;;1.44;84.36
4326;BME280;58429;49.826;10.880;2023-02-13T02:19:01;100715;;;1.4;84.28
4326;BME280;58429;49.826;10.880;2023-02-13T02:20:04;100715;;;1.4;84.28
4326;BME280;58429;49.826;10.880;2023-02-13T02:22:08;100710;;;1.37;84.27
4326;BME280;58429;49.826;10.880;2023-02-13T02:23:10;100709;;;1.38;84.41
4326;BME280;58429;49.826;10.880;2023-02-13T02:24:13;100708;;;1.35;84.42
4326;BME280;58429;49.826;10.880;2023-02-13T02:25:10;100711;;;1.34;84.61
4326;BME280;58429;49.826;10.880;2023-02-13T02:26:20;100710;;;1.33;84.76
4326;BME280;58429;49.826;10.880;2023-02-13T02:27:05;100706;;;1.33;85.08
4326;BME280;58429;49.826;10.880;2023-02-13T02:28:03;100710;;;1.29;85.16
4326;BME280;58429;49.826;10.880;2023-02-13T02:29:12;100714;;;1.3;85.3
4326;BME280;58429;49.826;10.880;2023-02-13T02:30:07;100711;;;1.28;85.4
4326;BME280;58429;49.826;10.880;2023-02-13T02:31:07;100714;;;1.22;85.55
4326;BME280;58429;49.826;10.880;2023-02-13T02:32:07;100715;;;1.13;85.86
4326;BME280;58429;49.826;10.880;2023-02-13T02:33:02;100710;;;1.09;86.45
4326;BME280;58429;49.826;10.880;2023-02-13T02:34:05;100707;;;1.08;86.55
4326;BME280;58429;49.826;10.880;2023-02-13T02:35:03;100711;;;1.09;86.66
4326;BME280;58429;49.826;10.880;2023-02-13T02:36:04;100707;;;1.12;86.96
4326;BME280;58429;49.826;10.880;2023-02-13T02:37:04;100715;;;1.13;87.06
4326;BME280;58429;49.826;10.880;2023-02-13T02:38:03;100706;;;1.13;87.11
4326;BME280;58429;49.826;10.880;2023-02-13T02:39:03;100708;;;1.16;87.17
4326;BME280;58429;49.826;10.880;2023-02-13T02:40:04;100711;;;1.17;87.36
4326;BME280;58429;49.826;10.880;2023-02-13T02:41:02;100714;;;1.13;87.49
4326;BME280;58429;49.826;10.880;2023-02-13T02:42:03;100710;;;1.18;87.36
4326;BME280;58429;49.826;10.880;2023-02-13T02:43:05;100712;;;1.18;87.31
4326;BME280;58429;49.826;10.880;2023-02-13T02:44:03;100706;;;1.18;87.23
4326;BME280;58429;49.826;10.880;2023-02-13T02:45:03;100713;;;1.16;87.18
4326;BME280;58429;49.826;10.880;2023-02-13T02:46:02;100711;;;1.17;87.11
4326;BME280;58429;49.826;10.880;2023-02-13T02:47:04;100715;;;1.15;87.13
4326;BME280;58429;49.826;10.880;2023-02-13T02:48:02;100714;;;1.17;87.32
4326;BME280;58429;49.826;10.880;2023-02-13T02:49:02;100711;;;1.2;87.24
4326;BME280;58429;49.826;10.880;2023-02-13T02:50:05;100712;;;1.15;87.24
4326;BME280;58429;49.826;10.880;2023-02-13T02:51:02;100714;;;1.11;87.59
4326;BME280;58429;49.826;10.880;2023-02-13T02:52:02;100712;;;1.11;87.56
4326;BME280;58429;49.826;10.880;2023-02-13T02:53:06;100706;;;1.09;87.46
4326;BME280;58429;49.826;10.880;2023-02-13T02:54:02;100704;;;1.08;87.66
4326;BME280;58429;49.826;10.880;2023-02-13T02:55:02;100705;;;1.09;87.79
4326;BME280;58429;49.826;10.880;2023-02-13T02:56:02;100706;;;1.11;87.77
4326;BME280;58429;49.826;10.880;2023-02-13T02:57:02;100700;;;1.09;87.59
4326;BME280;58429;49.826;10.880;2023-02-13T02:58:02;100700;;;1.09;87.48
4326;BME280;58429;49.826;10.880;2023-02-13T02:59:02;100699;;;1.09;87.45
4326;BME280;58429;49.826;10.880;2023-02-13T03:00:00;100702;;;1.07;87.25
4326;BME280;58429;49.826;10.880;2023-02-13T03:01:01;100697;;;1.1;87.13
4326;BME280;58429;49.826;10.880;2023-02-13T03:02:01;100700;;;1.09;87.04
4326;BME280;58429;49.826;10.880;2023-02-13T03:03:01;100705;;;1.09;86.99
4326;BME280;58429;49.826;10.880;2023-02-13T03:04:01;100703;;;1.13;86.82
4326;BME280;58429;49.826;10.880;2023-02-13T03:05:00;100707;;;1.08;86.69
4326;BME280;58429;49.826;10.880;2023-02-13T03:06:01;100709;;;1.07;86.6
4326;BME280;58429;49.826;10.880;2023-02-13T03:07:01;100702;;;1.08;86.47
4326;BME280;58429;49.826;10.880;2023-02-13T03:08:01;100699;;;1.1;86.41
4326;BME280;58429;49.826;10.880;2023-02-13T03:09:01;100699;;;1.08;86.43
4326;BME280;58429;49.826;10.880;2023-02-13T03:10:03;100705;;;1.1;86.29
4326;BME280;58429;49.826;10.880;2023-02-13T03:11:01;100702;;;1.08;86.23
4326;BME280;58429;49.826;10.880;2023-02-13T03:12:01;100706;;;1.07;86.48
4326;BME280;58429;49.826;10.880;2023-02-13T03:13:02;100704;;;1.08;86.64
4326;BME280;58429;49.826;10.880;2023-02-13T03:14:00;100710;;;1.07;86.59
4326;BME280;58429;49.826;10.880;2023-02-13T03:15:00;100717;;;1.04;86.52
4326;BME280;58429;49.826;10.880;2023-02-13T03:16:01;100708;;;1.05;86.77
4326;BME280;58429;49.826;10.880;2023-02-13T03:17:01;100712;;;1.02;87.11
4326;BME280;58429;49.826;10.880;2023-02-13T03:18:00;100716;;;0.99;86.98
4326;BME280;58429;49.826;10.880;2023-02-13T03:19:01;100712;;;0.91;87.05
4326;BME280;58429;49.826;10.880;2023-02-13T03:20:03;100716;;;0.87;87.06
4326;BME280;58429;49.826;10.880;2023-02-13T03:21:03;100716;;;0.83;87.9
4326;BME280;58429;49.826;10.880;2023-02-13T03:22:02;100716;;;0.77;88.37
4326;BME280;58429;49.826;10.880;2023-02-13T03:23:03;100716;;;0.67;88.68
4326;BME280;58429;49.826;10.880;2023-02-13T03:24:02;100715;;;0.6;89.29
4326;BME280;58429;49.826;10.880;2023-02-13T03:25:04;100717;;;0.6;89.48
4326;BME280;58429;49.826;10.880;2023-02-13T03:26:05;100718;;;0.6;89.57
4326;BME280;58429;49.826;10.880;2023-02-13T03:27:02;100712;;;0.61;89.73
4326;BME280;58429;49.826;10.880;2023-02-13T03:28:04;100719;;;0.59;89.53
4326;BME280;58429;49.826;10.880;2023-02-13T03:29:03;100714;;;0.61;89.47
4326;BME280;58429;49.826;10.880;2023-02-13T03:30:02;100716;;;0.61;89.4
4326;BME280;58429;49.826;10.880;2023-02-13T03:31:03;100720;;;0.59;89.14
4326;BME280;58429;49.826;10.880;2023-02-13T03:32:02;100718;;;0.61;89.04
4326;BME280;58429;49.826;10.880;2023-02-13T03:33:04;100717;;;0.59;88.91
4326;BME280;58429;49.826;10.880;2023-02-13T03:34:01;100716;;;0.59;88.81
4326;BME280;58429;49.826;10.880;2023-02-13T03:35:03;100715;;;0.52;88.75
4326;BME280;58429;49.826;10.880;2023-02-13T03:36:03;100711;;;0.57;88.62
4326;BME280;58429;49.826;10.880;2023-02-13T03:37:01;100719;;;0.59;88.5
4326;BME280;58429;49.826;10.880;2023-02-13T03:38:04;100719;;;0.6;88.39
4326;BME280;58429;49.826;10.880;2023-02-13T03:39:02;100716;;;0.6;88.25
4326;BME280;58429;49.826;10.880;2023-02-13T03:40:02;100713;;;0.57;88.15
4326;BME280;58429;49.826;10.880;2023-02-13T03:41:02;100719;;;0.56;88
4326;BME280;58429;49.826;10.880;2023-02-13T03:42:02;100722;;;0.57;87.92
4326;BME280;58429;49.826;10.880;2023-02-13T03:43:03;100719;;;0.56;87.87
4326;BME280;58429;49.826;10.880;2023-02-13T03:44:02;100718;;;0.53;87.72
4326;BME280;58429;49.826;10.880;2023-02-13T03:45:02;100718;;;0.52;87.61
4326;BME280;58429;49.826;10.880;2023-02-13T03:46:00;100717;;;0.52;87.54
4326;BME280;58429;49.826;10.880;2023-02-13T03:47:01;100714;;;0.52;87.42
4326;BME280;58429;49.826;10.880;2023-02-13T03:48:01;100718;;;0.57;87.38
4326;BME280;58429;49.826;10.880;2023-02-13T03:49:01;100718;;;0.59;87.29
4326;BME280;58429;49.826;10.880;2023-02-13T03:50:01;100716;;;0.61;87.24
4326;BME280;58429;49.826;10.880;2023-02-13T03:51:01;100710;;;0.6;87.13
4326;BME280;58429;49.826;10.880;2023-02-13T03:52:01;100713;;;0.61;87.01
4326;BME280;58429;49.826;10.880;2023-02-13T03:53:01;100721;;;0.61;86.92
4326;BME280;58429;49.826;10.880;2023-02-13T03:54:02;100721;;;0.64;86.85
4326;BME280;58429;49.826;10.880;2023-02-13T03:55:03;100719;;;0.7;86.78
4326;BME280;58429;49.826;10.880;2023-02-13T03:56:01;100726;;;0.69;86.71
4326;BME280;58429;49.826;10.880;2023-02-13T03:57:01;100729;;;0.7;86.62
4326;BME280;58429;49.826;10.880;2023-02-13T03:58:02;100724;;;0.72;86.56
4326;BME280;58429;49.826;10.880;2023-02-13T03:59:01;100723;;;0.73;86.54
4326;BME280;58429;49.826;10.880;2023-02-13T04:00:01;100727;;;0.74;86.5
4326;BME280;58429;49.826;10.880;2023-02-13T04:01:01;100720;;;0.76;86.43
4326;BME280;58429;49.826;10.880;2023-02-13T04:02:02;100721;;;0.74;86.43
4326;BME280;58429;49.826;10.880;2023-02-13T04:03:03;100730;;;0.73;86.37
4326;BME280;58429;49.826;10.880;2023-02-13T04:04:03;100723;;;0.77;86.33
4326;BME280;58429;49.826;10.880;2023-02-13T04:05:03;100725;;;0.76;86.25
4326;BME280;58429;49.826;10.880;2023-02-13T04:06:03;100725;;;0.76;86.21
4326;BME280;58429;49.826;10.880;2023-02-13T04:07:01;100721;;;0.79;86.18
4326;BME280;58429;49.826;10.880;2023-02-13T04:08:01;100719;;;0.82;86.18
4326;BME280;58429;49.826;10.880;2023-02-13T04:09:01;100719;;;0.77;86.09
4326;BME280;58429;49.826;10.880;2023-02-13T04:10:02;100727;;;0.78;86.01
4326;BME280;58429;49.826;10.880;2023-02-13T04:11:02;100728;;;0.82;86
4326;BME280;58429;49.826;10.880;2023-02-13T04:12:02;100726;;;0.78;86.05
4326;BME280;58429;49.826;10.880;2023-02-13T04:13:02;100717;;;0.81;86.08
4326;BME280;58429;49.826;10.880;2023-02-13T04:14:02;100715;;;0.83;86.01
4326;BME280;58429;49.826;10.880;2023-02-13T04:15:01;100714;;;0.84;86.17
4326;BME280;58429;49.826;10.880;2023-02-13T04:16:02;100719;;;0.83;86.23
4326;BME280;58429;49.826;10.880;2023-02-13T04:17:02;100717;;;0.79;86.29
4326;BME280;58429;49.826;10.880;2023-02-13T04:18:02;100720;;;0.78;86.36
4326;BME280;58429;49.826;10.880;2023-02-13T04:19:00;100729;;;0.78;86.42
4326;BME280;58429;49.826;10.880;2023-02-13T04:20:01;100723;;;0.75;86.79
4326;BME280;58429;49.826;10.880;2023-02-13T04:21:01;100725;;;0.77;87.07
4326;BME280;58429;49.826;10.880;2023-02-13T04:22:01;100733;;;0.69;87.64
4326;BME280;58429;49.826;10.880;2023-02-13T04:23:04;100725;;;0.68;88.1
4326;BME280;58429;49.826;10.880;2023-02-13T04:24:01;100723;;;0.69;88.24
4326;BME280;58429;49.826;10.880;2023-02-13T04:25:01;100727;;;0.68;88.17
4326;BME280;58429;49.826;10.880;2023-02-13T04:26:01;100721;;;0.67;87.98
4326;BME280;58429;49.826;10.880;2023-02-13T04:27:01;100725;;;0.65;88
4326;BME280;58429;49.826;10.880;2023-02-13T04:28:01;100722;;;0.66;87.88
4326;BME280;58429;49.826;10.880;2023-02-13T04:29:01;100724;;;0.65;87.76
4326;BME280;58429;49.826;10.880;2023-02-13T04:30:01;100730;;;0.66;87.68
4326;BME280;58429;49.826;10.880;2023-02-13T04:31:01;100724;;;0.65;87.62
4326;BME280;58429;49.826;10.880;2023-02-13T04:32:01;100724;;;0.65;87.61
4326;BME280;58429;49.826;10.880;2023-02-13T04:33:01;100721;;;0.64;87.51
4326;BME280;58429;49.826;10.880;2023-02-13T04:34:01;100715;;;0.65;87.57
4326;BME280;58429;49.826;10.880;2023-02-13T04:35:01;100722;;;0.65;87.47
4326;BME280;58429;49.826;10.880;2023-02-13T04:36:01;100719;;;0.63;87.38
4326;BME280;58429;49.826;10.880;2023-02-13T04:37:01;100726;;;0.67;87.4
4326;BME280;58429;49.826;10.880;2023-02-13T04:38:01;100722;;;0.67;87.43
4326;BME280;58429;49.826;10.880;2023-02-13T04:39:01;100717;;;0.65;87.45
4326;BME280;58429;49.826;10.880;2023-02-13T04:40:01;100719;;;0.64;87.44
4326;BME280;58429;49.826;10.880;2023-02-13T04:41:01;100726;;;0.64;87.4
4326;BME280;58429;49.826;10.880;2023-02-13T04:42:01;100722;;;0.63;87.39
4326;BME280;58429;49.826;10.880;2023-02-13T04:43:01;100720;;;0.6;87.31
4326;BME280;58429;49.826;10.880;2023-02-13T04:44:01;100720;;;0.62;87.3
4326;BME280;58429;49.826;10.880;2023-02-13T04:45:01;100715;;;0.58;87.23
4326;BME280;58429;49.826;10.880;2023-02-13T04:46:01;100716;;;0.6;87.19
4326;BME280;58429;49.826;10.880;2023-02-13T04:47:01;100721;;;0.59;87.08
4326;BME280;58429;49.826;10.880;2023-02-13T04:48:01;100716;;;0.6;87.04
4326;BME280;58429;49.826;10.880;2023-02-13T04:49:01;100717;;;0.6;86.92
4326;BME280;58429;49.826;10.880;2023-02-13T04:50:01;100721;;;0.64;86.84
4326;BME280;58429;49.826;10.880;2023-02-13T04:51:01;100716;;;0.61;86.79
4326;BME280;58429;49.826;10.880;2023-02-13T04:52:01;100718;;;0.64;86.82
4326;BME280;58429;49.826;10.880;2023-02-13T04:53:01;100712;;;0.6;86.84
4326;BME280;58429;49.826;10.880;2023-02-13T04:54:01;100715;;;0.6;87.17
4326;BME280;58429;49.826;10.880;2023-02-13T04:55:01;100718;;;0.6;87.01
4326;BME280;58429;49.826;10.880;2023-02-13T04:56:01;100718;;;0.59;87.04
4326;BME280;58429;49.826;10.880;2023-02-13T04:57:01;100717;;;0.58;87.13
4326;BME280;58429;49.826;10.880;2023-02-13T04:58:01;100714;;;0.6;87.27
4326;BME280;58429;49.826;10.880;2023-02-13T04:59:01;100716;;;0.53;87.09
4326;BME280;58429;49.826;10.880;2023-02-13T05:00:01;100715;;;0.54;87.27
4326;BME280;58429;49.826;10.880;2023-02-13T05:01:01;100721;;;0.56;87.15
4326;BME280;58429;49.826;10.880;2023-02-13T05:02:01;100718;;;0.51;87.11
4326;BME280;58429;49.826;10.880;2023-02-13T05:03:03;100716;;;0.56;87.09
4326;BME280;58429;49.826;10.880;2023-02-13T05:04:01;100723;;;0.57;87.03
4326;BME280;58429;49.826;10.880;2023-02-13T05:05:01;100721;;;0.56;86.97
4326;BME280;58429;49.826;10.880;2023-02-13T05:06:01;100718;;;0.55;86.91
4326;BME280;58429;49.826;10.880;2023-02-13T05:07:01;100723;;;0.56;86.91
4326;BME280;58429;49.826;10.880;2023-02-13T05:08:01;100722;;;0.52;86.82
4326;BME280;58429;49.826;10.880;2023-02-13T05:09:01;100721;;;0.56;86.8
4326;BME280;58429;49.826;10.880;2023-02-13T05:10:01;100724;;;0.57;86.8
4326;BME280;58429;49.826;10.880;2023-02-13T05:11:01;100726;;;0.57;86.9
4326;BME280;58429;49.826;10.880;2023-02-13T05:12:01;100732;;;0.57;86.91
4326;BME280;58429;49.826;10.880;2023-02-13T05:13:01;100725;;;0.58;86.88
4326;BME280;58429;49.826;10.880;2023-02-13T05:14:01;100726;;;0.54;86.84
4326;BME280;58429;49.826;10.880;2023-02-13T05:15:01;100721;;;0.54;86.76
4326;BME280;58429;49.826;10.880;2023-02-13T05:16:01;100729;;;0.55;86.84
4326;BME280;58429;49.826;10.880;2023-02-13T05:17:01;100727;;;0.54;86.92
4326;BME280;58429;49.826;10.880;2023-02-13T05:18:01;100726;;;0.55;86.9
4326;BME280;58429;49.826;10.880;2023-02-13T05:19:01;100723;;;0.54;86.95
4326;BME280;58429;49.826;10.880;2023-02-13T05:20:01;100724;;;0.55;87.41
4326;BME280;58429;49.826;10.880;2023-02-13T05:21:01;100730;;;0.57;87.67
4326;BME280;58429;49.826;10.880;2023-02-13T05:22:01;100733;;;0.54;87.96
4326;BME280;58429;49.826;10.880;2023-02-13T05:23:01;100737;;;0.54;87.94
4326;BME280;58429;49.826;10.880;2023-02-13T05:24:01;100731;;;0.54;87.82
4326;BME280;58429;49.826;10.880;2023-02-13T05:25:01;100734;;;0.55;87.71
4326;BME280;58429;49.826;10.880;2023-02-13T05:26:01;100734;;;0.55;87.65
4326;BME280;58429;49.826;10.880;2023-02-13T05:27:01;100735;;;0.56;87.8
4326;BME280;58429;49.826;10.880;2023-02-13T05:28:01;100735;;;0.55;87.86
4326;BME280;58429;49.826;10.880;2023-02-13T05:29:01;100738;;;0.53;87.72
4326;BME280;58429;49.826;10.880;2023-02-13T05:30:01;100738;;;0.57;87.62
4326;BME280;58429;49.826;10.880;2023-02-13T05:31:01;100735;;;0.54;87.54
4326;BME280;58429;49.826;10.880;2023-02-13T05:32:01;100735;;;0.56;87.45
4326;BME280;58429;49.826;10.880;2023-02-13T05:33:01;100740;;;0.58;87.34